Time;durP1;ratioP1;P1;durP2;ratioP2;P2;SDS_P1;SDS_P2;PMS_P1;PMS_P2;Temp;Humidity;BMP_temperature;BMP_pressure;BME280_temperature;BME280_humidity;BME280_pressure;Samples;Min_cycle;Max_cycle;Signal;HPM_P1;HPM_P2
2023/09/19 00:00:01;;;;;;;21.63;11.57;;;;;;;14.19;100.00;100640.16;5028839;28;20057;-62
2023/09/19 00:02:27;;;;;;;23.45;11.90;;;;;;;14.16;100.00;100640.00;5016314;28;20034;-62
2023/09/19 00:04:53;;;;;;;23.60;11.25;;;;;;;14.14;100.00;100659.00;5020144;28;20044;-62
2023/09/19 00:07:19;;;;;;;22.08;11.93;;;;;;;14.12;100.00;100658.53;5033802;28;20116;-62
2023/09/19 00:09:44;;;;;;;22.55;11.68;;;;;;;14.09;100.00;100661.97;5033966;28;20108;-62
2023/09/19 00:12:10;;;;;;;20.45;11.70;;;;;;;14.10;100.00;100658.06;5033646;28;20023;-63
2023/09/19 00:14:38;;;;;;;21.58;11.70;;;;;;;14.03;100.00;100653.81;5033447;28;20029;-62
2023/09/19 00:17:07;;;;;;;24.13;11.90;;;;;;;13.99;100.00;100661.19;5033268;28;20041;-63
2023/09/19 00:19:37;;;;;;;22.25;11.77;;;;;;;14.01;100.00;100663.63;5033094;28;20068;-62
2023/09/19 00:22:02;;;;;;;20.42;11.75;;;;;;;14.00;100.00;100673.13;5028947;28;20018;-62
2023/09/19 00:24:28;;;;;;;21.98;12.07;;;;;;;13.95;100.00;100673.31;5021556;28;20354;-62
2023/09/19 00:26:55;;;;;;;20.90;11.82;;;;;;;13.98;100.00;100675.44;5017890;28;20104;-63
2023/09/19 00:29:20;;;;;;;21.92;12.00;;;;;;;13.99;100.00;100677.88;5033003;28;20030;-62
2023/09/19 00:31:46;;;;;;;23.65;11.80;;;;;;;13.97;100.00;100684.94;5030925;28;20029;-63
2023/09/19 00:34:11;;;;;;;21.63;11.35;;;;;;;14.02;100.00;100684.75;5015665;28;20037;-63
2023/09/19 00:36:40;;;;;;;24.33;12.32;;;;;;;13.99;100.00;100693.75;5013346;28;20030;-62
2023/09/19 00:39:06;;;;;;;22.80;11.73;;;;;;;13.98;100.00;100690.16;5013408;28;20179;-62
2023/09/19 00:41:32;;;;;;;21.67;10.80;;;;;;;13.90;100.00;100696.56;5013384;28;20041;-62
2023/09/19 00:43:58;;;;;;;22.25;11.40;;;;;;;13.88;100.00;100687.75;5018313;28;20092;-62
2023/09/19 00:46:25;;;;;;;22.58;11.85;;;;;;;13.84;100.00;100693.16;5032959;28;20033;-62
2023/09/19 00:48:50;;;;;;;21.27;11.02;;;;;;;13.83;100.00;100697.09;5014430;28;20141;-62
2023/09/19 00:51:19;;;;;;;23.13;11.35;;;;;;;13.82;100.00;100701.00;5012939;28;20410;-63
2023/09/19 00:53:46;;;;;;;24.42;11.93;;;;;;;13.81;100.00;100704.13;5013296;28;20086;-63
2023/09/19 00:56:11;;;;;;;21.90;11.10;;;;;;;13.82;100.00;100714.09;5029532;28;20036;-62
2023/09/19 00:58:38;;;;;;;20.85;11.10;;;;;;;13.79;100.00;100709.19;5033132;28;20108;-62
2023/09/19 01:01:06;;;;;;;22.40;11.30;;;;;;;13.79;100.00;100709.19;5032855;28;20177;-62
2023/09/19 01:03:33;;;;;;;21.58;11.32;;;;;;;13.77;100.00;100717.88;5032801;28;20017;-63
2023/09/19 01:06:00;;;;;;;20.73;11.20;;;;;;;13.77;100.00;100725.38;5032726;28;20060;-61
2023/09/19 01:08:29;;;;;;;22.02;12.02;;;;;;;13.73;100.00;100726.06;5032713;28;20128;-62
2023/09/19 01:11:02;;;;;;;22.58;12.18;;;;;;;13.70;100.00;100726.72;5032329;28;20045;-62
2023/09/19 01:13:50;;;;;;;19.88;11.60;;;;;;;13.68;100.00;100720.66;5024565;28;20168;-62
2023/09/19 01:16:33;;;;;;;22.42;12.10;;;;;;;13.63;100.00;100725.59;5012957;28;20022;-62
2023/09/19 01:19:37;;;;;;;22.75;12.13;;;;;;;13.66;100.00;100728.50;5013347;28;20041;-63
2023/09/19 01:22:40;;;;;;;21.60;12.20;;;;;;;13.60;100.00;100727.06;5018586;28;20025;-62
2023/09/19 01:25:23;;;;;;;23.63;12.45;;;;;;;13.61;100.00;100737.03;5024478;28;20018;-63
2023/09/19 01:28:07;;;;;;;21.50;11.82;;;;;;;13.54;100.00;100740.31;5014659;28;20061;-63
2023/09/19 01:30:40;;;;;;;22.77;12.13;;;;;;;13.53;100.00;100729.53;5032361;28;20099;-63
2023/09/19 01:33:06;;;;;;;22.13;11.20;;;;;;;13.48;100.00;100733.31;5032475;28;20116;-63
2023/09/19 01:35:34;;;;;;;25.15;11.68;;;;;;;13.46;100.00;100741.16;5032082;28;20549;-63
2023/09/19 01:37:59;;;;;;;24.58;11.88;;;;;;;13.48;100.00;100752.75;5031789;28;20156;-63
2023/09/19 01:40:25;;;;;;;21.70;11.80;;;;;;;13.45;100.00;100756.19;5032236;28;20068;-62
2023/09/19 01:43:18;;;;;;;22.25;12.13;;;;;;;13.41;100.00;100752.44;5032083;28;20472;-62
2023/09/19 01:46:19;;;;;;;20.63;11.20;;;;;;;13.36;100.00;100752.56;5028842;28;20026;-62
2023/09/19 01:49:02;;;;;;;24.95;12.35;;;;;;;13.34;100.00;100760.41;5016096;28;20025;-63
2023/09/19 01:51:48;;;;;;;21.15;12.43;;;;;;;13.30;100.00;100749.13;5019480;28;20560;-62
2023/09/19 01:54:22;;;;;;;19.20;11.02;;;;;;;13.29;100.00;100753.03;5032171;28;20132;-61
2023/09/19 01:57:01;;;;;;;20.17;11.30;;;;;;;13.27;100.00;100750.59;5032001;28;20108;-63
2023/09/19 01:59:35;;;;;;;22.98;11.43;;;;;;;13.25;100.00;100764.00;5032329;28;20032;-62
2023/09/19 02:02:01;;;;;;;22.63;11.52;;;;;;;13.25;100.00;100744.56;5029656;28;20033;-63
2023/09/19 02:04:27;;;;;;;20.58;11.23;;;;;;;13.27;100.00;100750.59;5012291;28;20049;-62
2023/09/19 02:06:53;;;;;;;20.77;11.35;;;;;;;13.26;100.00;100756.50;5011944;28;20386;-62
2023/09/19 02:09:18;;;;;;;22.58;11.23;;;;;;;13.29;100.00;100763.34;5011579;28;20049;-63
2023/09/19 02:11:44;;;;;;;22.08;12.70;;;;;;;13.24;100.00;100751.25;5012960;28;20060;-62
2023/09/19 02:14:09;;;;;;;21.83;11.18;;;;;;;13.20;100.00;100750.28;5031145;28;20381;-62
2023/09/19 02:16:35;;;;;;;22.17;12.07;;;;;;;13.21;100.00;100751.91;5025449;28;20101;-63
2023/09/19 02:19:00;;;;;;;22.42;11.50;;;;;;;13.23;100.00;100755.16;5031342;28;20033;-62
2023/09/19 02:21:29;;;;;;;23.50;11.80;;;;;;;13.20;100.00;100761.38;5025453;28;20042;-63
2023/09/19 02:23:55;;;;;;;21.70;11.23;;;;;;;13.17;100.00;100753.69;5011864;28;20072;-62
2023/09/19 02:26:20;;;;;;;19.13;10.60;;;;;;;13.16;100.00;100760.41;5018777;28;20029;-62
2023/09/19 02:28:46;;;;;;;21.30;10.93;;;;;;;13.09;100.00;100751.75;5031535;28;20026;-62
2023/09/19 02:31:11;;;;;;;21.08;11.57;;;;;;;13.09;100.00;100760.06;5031591;28;20100;-62
2023/09/19 02:33:37;;;;;;;20.05;11.43;;;;;;;13.07;100.00;100757.63;5031497;28;20435;-62
2023/09/19 02:36:03;;;;;;;22.13;11.30;;;;;;;13.06;100.00;100767.09;5017068;28;20099;-63
2023/09/19 02:38:28;;;;;;;20.80;11.75;;;;;;;13.05;100.00;100772.97;5011965;28;20124;-63
2023/09/19 02:40:55;;;;;;;20.08;11.50;;;;;;;12.99;100.00;100772.28;5011746;28;20157;-62
2023/09/19 02:43:21;;;;;;;19.23;11.05;;;;;;;12.97;100.00;100771.81;5012057;28;20030;-62
2023/09/19 02:46:04;;;;;;;18.30;11.20;;;;;;;12.91;100.00;100764.78;5028106;28;20488;-62
2023/09/19 02:48:31;;;;;;;20.05;11.43;;;;;;;12.92;100.00;100770.03;5025362;28;20109;-62
2023/09/19 02:50:57;;;;;;;19.15;10.85;;;;;;;12.87;100.00;100772.13;5019264;28;20037;-63
2023/09/19 02:53:23;;;;;;;24.60;11.90;;;;;;;12.83;100.00;100782.22;5031318;28;20791;-62
2023/09/19 02:55:49;;;;;;;23.63;11.15;;;;;;;12.79;100.00;100780.13;5016302;28;20068;-62
2023/09/19 02:58:14;;;;;;;19.38;11.35;;;;;;;12.79;100.00;100780.13;5015501;28;20123;-62
2023/09/19 03:00:41;;;;;;;22.23;10.93;;;;;;;12.73;100.00;100784.16;5015444;28;20045;-62
2023/09/19 03:03:08;;;;;;;20.63;10.73;;;;;;;12.67;100.00;100785.47;5020345;28;20148;-62
2023/09/19 03:05:34;;;;;;;18.73;10.90;;;;;;;12.63;100.00;100787.25;5034790;28;20029;-62
2023/09/19 03:08:03;;;;;;;20.40;11.23;;;;;;;12.57;100.00;100791.31;5035007;28;20037;-62
2023/09/19 03:10:29;;;;;;;18.13;11.00;;;;;;;12.57;100.00;100783.00;5025775;28;20030;-62
2023/09/19 03:12:55;;;;;;;22.67;12.13;;;;;;;12.50;100.00;100788.19;5031729;28;20037;-63
2023/09/19 03:15:21;;;;;;;18.42;11.00;;;;;;;12.47;100.00;100786.84;5029620;28;20395;-62
2023/09/19 03:17:48;;;;;;;19.48;10.23;;;;;;;12.40;100.00;100779.03;5023508;28;20453;-62
2023/09/19 03:20:16;;;;;;;20.15;10.50;;;;;;;12.41;100.00;100788.16;5014974;28;20088;-62
2023/09/19 03:22:41;;;;;;;19.48;10.57;;;;;;;12.39;100.00;100785.69;5015084;28;20025;-62
2023/09/19 03:25:11;;;;;;;20.58;11.05;;;;;;;12.36;100.00;100788.28;5014833;28;20311;-62
2023/09/19 03:27:37;;;;;;;20.00;11.27;;;;;;;12.38;100.00;100788.78;5015141;28;20029;-62
2023/09/19 03:30:08;;;;;;;21.42;10.55;;;;;;;12.33;100.00;100782.25;5016649;28;20038;-62
2023/09/19 03:32:34;;;;;;;19.90;10.20;;;;;;;12.36;100.00;100786.34;5034653;28;20055;-62
2023/09/19 03:34:59;;;;;;;20.80;10.50;;;;;;;12.40;100.00;100786.50;5034303;28;20492;-62
2023/09/19 03:37:24;;;;;;;21.25;10.27;;;;;;;12.38;100.00;100789.59;5034751;28;20045;-62
2023/09/19 03:39:50;;;;;;;19.27;10.27;;;;;;;12.40;100.00;100783.72;5034532;28;20112;-61
2023/09/19 03:42:15;;;;;;;18.90;10.02;;;;;;;12.38;100.00;100781.28;5034313;28;20029;-62
2023/09/19 03:44:40;;;;;;;20.85;11.60;;;;;;;12.40;100.00;100780.97;5025714;28;20116;-62
2023/09/19 03:47:06;;;;;;;18.58;10.75;;;;;;;12.37;100.00;100768.56;5031987;28;20056;-62
2023/09/19 03:49:32;;;;;;;21.88;11.10;;;;;;;12.38;100.00;100767.41;5028237;28;20129;-62
2023/09/19 03:51:57;;;;;;;19.25;10.77;;;;;;;12.42;100.00;100767.59;5020464;28;20070;-63
2023/09/19 03:54:22;;;;;;;21.52;10.30;;;;;;;12.42;100.00;100768.41;5029855;28;20037;-63
2023/09/19 03:56:48;;;;;;;20.60;10.75;;;;;;;12.40;100.00;100764.31;5028917;28;20079;-63
2023/09/19 03:59:13;;;;;;;19.92;11.05;;;;;;;12.39;100.00;100766.28;5034146;28;20022;-62
2023/09/19 04:01:41;;;;;;;19.38;11.05;;;;;;;12.40;100.00;100767.09;5034196;28;20029;-62
2023/09/19 04:04:09;;;;;;;23.42;11.70;;;;;;;12.38;100.00;100775.75;5033997;28;20112;-62
2023/09/19 04:06:35;;;;;;;19.23;12.30;;;;;;;12.38;100.00;100772.97;5033896;28;20034;-63
2023/09/19 04:09:01;;;;;;;20.00;11.32;;;;;;;12.43;100.00;100772.00;5033972;28;20025;-63
2023/09/19 04:11:26;;;;;;;27.77;11.77;;;;;;;12.43;100.00;100772.00;5034141;28;20072;-62
2023/09/19 04:13:52;;;;;;;20.70;11.38;;;;;;;12.39;100.00;100768.22;5033814;28;20049;-62
2023/09/19 04:16:17;;;;;;;19.55;11.82;;;;;;;12.36;100.00;100766.09;5025679;28;20041;-63
2023/09/19 04:18:43;;;;;;;21.35;11.70;;;;;;;12.33;100.00;100764.75;5033689;28;20468;-62
2023/09/19 04:21:08;;;;;;;22.00;12.20;;;;;;;12.33;100.00;100782.25;5028348;28;20022;-62
2023/09/19 04:23:33;;;;;;;20.00;12.38;;;;;;;12.32;100.00;100780.59;5018414;28;20029;-61
2023/09/19 04:25:59;;;;;;;20.13;12.05;;;;;;;12.34;100.00;100791.38;5026533;28;20037;-61
2023/09/19 04:28:24;;;;;;;19.88;11.57;;;;;;;12.37;100.00;100787.16;5033728;28;20449;-62
2023/09/19 04:30:50;;;;;;;22.42;11.85;;;;;;;12.34;100.00;100783.06;5015867;28;20338;-62
2023/09/19 04:33:15;;;;;;;20.05;11.88;;;;;;;12.41;100.00;100799.25;5013652;28;20088;-62
2023/09/19 04:35:42;;;;;;;22.08;11.63;;;;;;;12.43;100.00;100805.28;5013566;28;20022;-62
2023/09/19 04:38:08;;;;;;;20.90;12.30;;;;;;;12.42;100.00;100812.78;5019613;28;20045;-62
2023/09/19 04:40:33;;;;;;;21.05;12.07;;;;;;;12.44;100.00;100816.06;5033279;28;20024;-62
2023/09/19 04:43:00;;;;;;;22.35;12.00;;;;;;;12.47;100.00;100832.09;5033291;28;20026;-62
2023/09/19 04:45:26;;;;;;;20.05;12.02;;;;;;;12.50;100.00;100833.38;5030680;28;20184;-63
2023/09/19 04:47:52;;;;;;;21.30;12.50;;;;;;;12.56;100.00;100834.06;5013244;28;20032;-62
2023/09/19 04:50:18;;;;;;;21.10;12.45;;;;;;;12.60;100.00;100832.31;5026484;28;20069;-63
2023/09/19 04:52:44;;;;;;;20.73;12.13;;;;;;;12.62;100.00;100841.94;5027643;28;20500;-62
2023/09/19 04:55:17;;;;;;;19.85;11.90;;;;;;;12.64;100.00;100836.91;5020017;28;20026;-61
2023/09/19 04:57:47;;;;;;;25.77;13.30;;;;;;;12.61;100.00;100834.75;5019343;28;20493;-62
2023/09/19 05:00:14;;;;;;;21.00;12.35;;;;;;;12.62;100.00;100839.16;5017142;28;20063;-63
2023/09/19 05:02:40;;;;;;;21.77;13.15;;;;;;;12.61;100.00;100839.50;5031944;28;20360;-63
2023/09/19 05:05:08;;;;;;;22.40;13.10;;;;;;;12.60;100.00;100838.66;5032059;28;20100;-63
2023/09/19 05:07:34;;;;;;;23.50;13.32;;;;;;;12.58;100.00;100838.16;5032010;28;20538;-63
2023/09/19 05:09:59;;;;;;;23.33;12.82;;;;;;;12.55;100.00;100840.75;5032330;28;20045;-63
2023/09/19 05:12:26;;;;;;;22.63;13.25;;;;;;;12.57;100.00;100850.38;5015737;28;20360;-63
2023/09/19 05:14:51;;;;;;;21.02;13.80;;;;;;;12.57;100.00;100844.84;5012463;28;20034;-63
2023/09/19 05:17:16;;;;;;;22.10;13.88;;;;;;;12.56;100.00;100851.56;5015895;28;20035;-63
2023/09/19 05:19:42;;;;;;;23.00;13.50;;;;;;;12.55;100.00;100854.63;5031968;28;20037;-63
2023/09/19 05:22:08;;;;;;;22.55;13.70;;;;;;;12.56;100.00;100850.72;5030278;28;20621;-63
2023/09/19 05:24:33;;;;;;;22.75;13.60;;;;;;;12.55;100.00;100849.91;5014871;28;20029;-64
2023/09/19 05:26:59;;;;;;;21.80;13.48;;;;;;;12.54;100.00;100847.44;5011209;28;20444;-64
2023/09/19 05:29:24;;;;;;;21.55;13.57;;;;;;;12.53;100.00;100848.56;5011036;28;20046;-63
2023/09/19 05:31:50;;;;;;;24.38;13.52;;;;;;;12.55;100.00;100849.09;5010461;28;20022;-63
2023/09/19 05:34:16;;;;;;;22.83;12.60;;;;;;;12.54;100.00;100859.38;5027941;28;20029;-63
2023/09/19 05:36:43;;;;;;;22.13;11.80;;;;;;;12.58;100.00;100849.25;5030744;28;20563;-64
2023/09/19 05:39:09;;;;;;;21.45;11.50;;;;;;;12.58;100.00;100856.78;5031036;28;20034;-64
2023/09/19 05:41:36;;;;;;;23.33;11.52;;;;;;;12.58;100.00;100854.81;5031067;28;20033;-63
2023/09/19 05:44:02;;;;;;;20.50;11.07;;;;;;;12.60;100.00;100858.09;5031011;28;20037;-63
2023/09/19 05:46:29;;;;;;;19.42;10.60;;;;;;;12.63;100.00;100859.41;5030540;28;20025;-63
2023/09/19 05:48:56;;;;;;;19.25;10.57;;;;;;;12.68;100.00;100859.28;5022669;28;20033;-63
2023/09/19 05:51:22;;;;;;;20.48;10.80;;;;;;;12.68;100.00;100861.22;5024058;28;20445;-63
2023/09/19 05:53:48;;;;;;;19.23;11.10;;;;;;;12.72;100.00;100851.94;5024647;28;20064;-64
2023/09/19 05:56:14;;;;;;;19.92;10.90;;;;;;;12.80;100.00;100855.88;5021321;28;20437;-64
2023/09/19 05:58:42;;;;;;;21.77;11.30;;;;;;;12.76;100.00;100852.94;5030425;28;20034;-63
2023/09/19 06:01:09;;;;;;;22.33;10.70;;;;;;;12.76;100.00;100841.81;5020822;28;20775;-63
2023/09/19 06:03:35;;;;;;;20.67;11.35;;;;;;;12.79;100.00;100849.53;5010947;28;20331;-63
2023/09/19 06:06:06;;;;;;;20.10;10.95;;;;;;;12.83;100.00;100851.63;5022948;28;20105;-65
2023/09/19 06:08:31;;;;;;;20.88;11.32;;;;;;;12.85;100.00;100846.59;5030163;28;20109;-64
2023/09/19 06:10:57;;;;;;;23.60;11.38;;;;;;;12.89;100.00;100858.69;5017881;28;20381;-64
2023/09/19 06:13:23;;;;;;;20.48;11.43;;;;;;;12.93;100.00;100865.22;5011969;28;20022;-64
2023/09/19 06:15:49;;;;;;;21.83;11.02;;;;;;;13.00;100.00;100860.03;5011646;28;20045;-64
2023/09/19 06:18:19;;;;;;;20.73;10.88;;;;;;;13.04;100.00;100860.19;5013988;28;20418;-65
2023/09/19 06:20:50;;;;;;;25.13;11.90;;;;;;;13.02;100.00;100859.72;5030543;28;20441;-65
2023/09/19 06:23:16;;;;;;;19.50;11.20;;;;;;;13.06;100.00;100861.53;5022822;28;20044;-65
2023/09/19 06:25:43;;;;;;;20.38;11.15;;;;;;;13.09;100.00;100868.38;5030318;28;20445;-65
2023/09/19 06:28:11;;;;;;;21.98;10.95;;;;;;;13.11;100.00;100872.47;5013018;28;20421;-64
2023/09/19 06:30:41;;;;;;;22.27;11.55;;;;;;;13.11;100.00;100868.88;5013606;28;20469;-65
2023/09/19 06:33:07;;;;;;;21.92;11.43;;;;;;;13.12;100.00;100878.88;5027170;28;20026;-64
2023/09/19 06:35:33;;;;;;;22.30;11.85;;;;;;;13.13;100.00;100880.47;5033469;28;20030;-66
2023/09/19 06:38:02;;;;;;;22.25;11.45;;;;;;;13.17;100.00;100873.13;5033767;28;20053;-65
2023/09/19 06:40:28;;;;;;;20.73;11.70;;;;;;;13.19;100.00;100881.97;5033754;28;20148;-64
2023/09/19 06:42:53;;;;;;;21.90;11.35;;;;;;;13.22;100.00;100881.34;5033722;28;20040;-65
2023/09/19 06:45:19;;;;;;;28.55;12.30;;;;;;;13.26;100.00;100892.63;5034040;28;20021;-64
2023/09/19 06:47:45;;;;;;;22.27;11.40;;;;;;;13.30;100.00;100888.03;5033348;28;20034;-64
2023/09/19 06:50:14;;;;;;;21.52;11.25;;;;;;;13.32;100.00;100896.06;5028664;28;20029;-65
2023/09/19 06:52:42;;;;;;;22.65;11.40;;;;;;;13.36;100.00;100889.53;5014081;28;20485;-65
2023/09/19 06:55:09;;;;;;;22.75;11.55;;;;;;;13.40;100.00;100895.28;5014634;28;20084;-64
2023/09/19 06:57:35;;;;;;;21.42;11.25;;;;;;;13.40;100.00;100896.09;5014788;28;20034;-64
2023/09/19 07:00:01;;;;;;;22.33;11.80;;;;;;;13.41;100.00;100894.97;5014602;28;20119;-65
2023/09/19 07:02:27;;;;;;;20.20;11.25;;;;;;;13.43;100.00;100886.28;5014676;28;20109;-64
2023/09/19 07:04:52;;;;;;;23.02;11.35;;;;;;;13.48;100.00;100885.31;5014379;28;20105;-64
2023/09/19 07:07:17;;;;;;;24.80;12.15;;;;;;;13.50;100.00;100883.88;5014284;28;20114;-64
2023/09/19 07:09:43;;;;;;;21.88;11.80;;;;;;;13.49;100.00;100879.44;5014322;28;20057;-64
2023/09/19 07:12:08;;;;;;;22.67;11.55;;;;;;;13.54;100.00;100881.25;5014034;28;20473;-64
2023/09/19 07:14:34;;;;;;;22.08;11.68;;;;;;;13.56;100.00;100890.06;5013953;28;20038;-65
2023/09/19 07:17:03;;;;;;;20.08;11.38;;;;;;;13.58;100.00;100896.13;5014915;28;20109;-64
2023/09/19 07:19:29;;;;;;;23.52;11.88;;;;;;;13.62;100.00;100897.13;5018220;28;20048;-65
2023/09/19 07:21:55;;;;;;;22.48;11.70;;;;;;;13.62;100.00;100890.72;5014095;28;20405;-64
2023/09/19 07:24:23;;;;;;;21.48;11.90;;;;;;;13.64;100.00;100891.22;5013933;28;20040;-64
2023/09/19 07:26:48;;;;;;;19.65;11.70;;;;;;;13.69;100.00;100891.06;5014129;28;20057;-64
2023/09/19 07:29:13;;;;;;;23.33;12.15;;;;;;;13.70;100.00;100887.97;5017574;28;20115;-65
2023/09/19 07:31:39;;;;;;;21.98;11.55;;;;;;;13.77;100.00;100892.19;5024520;28;20032;-64
2023/09/19 07:34:06;;;;;;;21.48;11.85;;;;;;;13.82;100.00;100886.50;5027516;28;20042;-65
2023/09/19 07:36:34;;;;;;;22.95;11.45;;;;;;;13.86;100.00;100891.06;5023883;28;20025;-65
2023/09/19 07:39:00;;;;;;;21.08;11.50;;;;;;;13.96;100.00;100892.69;5019165;28;20113;-64
2023/09/19 07:41:25;;;;;;;21.52;12.05;;;;;;;14.03;100.00;100898.56;5028846;28;20172;-65
2023/09/19 07:43:50;;;;;;;22.08;11.60;;;;;;;14.12;100.00;100900.56;5033754;28;20033;-64
2023/09/19 07:46:16;;;;;;;21.17;11.50;;;;;;;14.19;100.00;100895.31;5033608;28;20481;-64
2023/09/19 07:48:44;;;;;;;24.38;12.15;;;;;;;14.25;100.00;100899.53;5033770;28;20056;-65
2023/09/19 07:51:09;;;;;;;21.05;11.88;;;;;;;14.37;100.00;100892.47;5033939;28;20108;-65
2023/09/19 07:53:35;;;;;;;24.98;12.60;;;;;;;14.34;100.00;100908.69;5032671;28;20481;-64
2023/09/19 07:56:09;;;;;;;23.15;12.43;;;;;;;14.37;100.00;100886.91;5033001;28;20397;-64
2023/09/19 07:58:37;;;;;;;20.90;11.85;;;;;;;14.42;100.00;100897.84;5033201;28;20048;-64
2023/09/19 08:01:07;;;;;;;20.85;11.65;;;;;;;14.55;100.00;100901.63;5033029;28;20037;-64
2023/09/19 08:03:40;;;;;;;21.25;11.70;;;;;;;14.61;100.00;100903.88;5032943;28;20032;-65
2023/09/19 08:06:06;;;;;;;21.50;11.23;;;;;;;14.72;100.00;100911.88;5032690;28;20052;-64
2023/09/19 08:08:32;;;;;;;20.25;11.35;;;;;;;14.78;100.00;100908.59;5032826;28;20152;-65
2023/09/19 08:10:58;;;;;;;21.13;11.15;;;;;;;14.87;100.00;100918.88;5032586;28;20033;-63
2023/09/19 08:13:24;;;;;;;23.00;11.70;;;;;;;14.91;100.00;100915.09;5032330;28;20116;-63
2023/09/19 08:15:50;;;;;;;20.85;11.43;;;;;;;14.98;100.00;100922.94;5032360;28;20045;-59
2023/09/19 08:18:16;;;;;;;19.90;11.55;;;;;;;15.02;100.00;100920.31;5032780;28;20461;-59
2023/09/19 08:20:42;;;;;;;19.55;11.65;;;;;;;15.04;100.00;100909.66;5032370;28;20052;-60
2023/09/19 08:23:08;;;;;;;23.30;11.73;;;;;;;15.07;100.00;100904.22;5032569;28;20082;-65
2023/09/19 08:25:34;;;;;;;24.38;11.20;;;;;;;15.14;100.00;100906.47;5032374;28;20132;-65
2023/09/19 08:28:03;;;;;;;22.02;11.48;;;;;;;15.21;100.00;100905.97;5032333;28;20630;-65
2023/09/19 08:30:30;;;;;;;23.48;12.15;;;;;;;15.27;100.00;100899.03;5032175;28;20105;-65
2023/09/19 08:33:03;;;;;;;22.50;11.23;;;;;;;15.38;100.00;100905.03;5032464;28;20129;-65
2023/09/19 08:35:28;;;;;;;23.27;11.52;;;;;;;15.48;100.00;100903.81;5032527;28;20025;-66
2023/09/19 08:37:55;;;;;;;22.65;11.20;;;;;;;15.53;100.00;100910.03;5032391;28;20381;-65
2023/09/19 08:40:21;;;;;;;24.90;11.50;;;;;;;15.58;100.00;100903.44;5032423;28;20029;-66
2023/09/19 08:42:51;;;;;;;21.60;10.77;;;;;;;15.69;100.00;100912.19;5032250;28;20136;-65
2023/09/19 08:45:17;;;;;;;23.63;11.18;;;;;;;15.80;100.00;100907.03;5026503;28;20439;-66
2023/09/19 08:48:17;;;;;;;23.15;11.52;;;;;;;15.93;100.00;100902.34;5024722;28;20068;-65
2023/09/19 08:50:52;;;;;;;23.13;11.23;;;;;;;15.84;100.00;100903.25;5004836;28;20045;-66
2023/09/19 08:54:05;;;;;;;24.02;11.30;;;;;;;15.93;100.00;100905.97;5017771;28;20042;-65
2023/09/19 08:56:33;;;;;;;23.10;11.10;;;;;;;15.93;100.00;100908.75;4966926;28;20049;-65
2023/09/19 08:59:08;;;;;;;21.35;10.88;;;;;;;15.97;100.00;100908.88;5020143;28;20501;-65
2023/09/19 09:01:34;;;;;;;22.13;11.00;;;;;;;16.04;98.67;100909.97;5012554;28;20092;-65
2023/09/19 09:04:01;;;;;;;21.25;11.00;;;;;;;16.14;99.13;100905.94;5023318;28;20117;-65
2023/09/19 09:06:28;;;;;;;19.42;10.63;;;;;;;16.28;99.21;100913.22;5043490;28;20017;-66
2023/09/19 09:08:54;;;;;;;22.60;10.80;;;;;;;16.30;98.87;100908.06;5038350;28;20057;-64
2023/09/19 09:11:20;;;;;;;21.50;10.82;;;;;;;16.35;97.68;100914.25;5020951;28;20032;-66
2023/09/19 09:13:47;;;;;;;19.42;10.48;;;;;;;16.33;96.65;100916.59;5012154;28;20091;-65
2023/09/19 09:16:13;;;;;;;21.25;11.20;;;;;;;16.24;96.81;100913.09;5021401;28;20037;-65
2023/09/19 09:18:39;;;;;;;20.98;10.98;;;;;;;16.29;96.59;100909.25;5010882;28;20038;-65
2023/09/19 09:21:05;;;;;;;22.20;11.00;;;;;;;16.41;96.57;100914.06;5031698;28;20177;-66
2023/09/19 09:23:32;;;;;;;21.42;10.70;;;;;;;16.52;96.53;100904.88;5031741;28;20052;-66
2023/09/19 09:26:06;;;;;;;22.48;11.10;;;;;;;16.63;96.13;100908.03;5031383;28;20037;-65
2023/09/19 09:28:33;;;;;;;20.40;10.88;;;;;;;16.75;95.40;100912.03;5031685;28;20388;-65
2023/09/19 09:30:59;;;;;;;21.02;10.23;;;;;;;16.83;93.59;100908.31;5031368;28;20029;-65
2023/09/19 09:33:25;;;;;;;20.23;11.07;;;;;;;16.88;93.81;100908.09;5031626;28;20619;-65
2023/09/19 09:35:59;;;;;;;22.45;10.38;;;;;;;16.83;93.91;100900.75;5030060;28;20037;-66
2023/09/19 09:38:27;;;;;;;;;;;;;;;16.85;94.57;100883.63;5030349;28;20088;-65
2023/09/19 09:43:35;;;;;;;;;;;;;;;16.77;93.64;100890.97;5030899;28;20106;-65
2023/09/19 09:51:42;;;;;;;21.95;10.65;;;;;;;16.79;95.11;100880.25;5030049;28;20159;-67
2023/09/19 09:54:17;;;;;;;21.30;10.68;;;;;;;16.93;92.72;100888.31;5029343;28;20048;-65
2023/09/19 09:56:59;;;;;;;21.85;10.95;;;;;;;16.99;92.07;100902.88;5030838;28;20040;-66
2023/09/19 09:59:49;;;;;;;22.75;11.10;;;;;;;17.07;91.48;100901.16;5030789;28;20528;-66
2023/09/19 10:02:25;;;;;;;20.25;9.60;;;;;;;17.10;88.84;100897.63;5030592;28;20079;-65
2023/09/19 10:04:58;;;;;;;20.23;10.40;;;;;;;17.15;88.77;100900.22;5030852;28;20033;-66
2023/09/19 10:07:35;;;;;;;19.60;10.97;;;;;;;17.39;89.42;100901.34;5022180;28;20041;-66
2023/09/19 10:10:13;;;;;;;20.90;10.73;;;;;;;17.50;87.36;100894.09;5021621;28;20044;-66
2023/09/19 10:12:42;;;;;;;21.20;10.40;;;;;;;17.53;87.33;100893.41;5025654;28;20108;-67
2023/09/19 10:15:10;;;;;;;21.75;11.05;;;;;;;17.59;87.01;100905.97;5021132;28;20045;-66
2023/09/19 10:17:36;;;;;;;20.90;10.05;;;;;;;17.56;86.34;100889.09;5021737;28;20034;-66
2023/09/19 10:20:09;;;;;;;20.33;10.10;;;;;;;17.55;85.83;100893.06;5022107;28;20037;-66
2023/09/19 10:22:35;;;;;;;19.38;10.32;;;;;;;17.57;86.62;100893.53;5030709;28;20057;-66
2023/09/19 10:25:04;;;;;;;22.08;11.05;;;;;;;17.61;85.85;100900.06;5030486;28;20087;-66
2023/09/19 10:27:37;;;;;;;23.13;10.35;;;;;;;17.64;85.55;100890.13;5030350;28;20021;-63
2023/09/19 10:30:07;;;;;;;20.48;9.93;;;;;;;17.60;85.51;100887.22;5030628;28;20041;-66
2023/09/19 10:32:34;;;;;;;21.17;10.93;;;;;;;17.61;85.37;100895.25;5029326;28;20029;-66
2023/09/19 10:35:01;;;;;;;20.67;11.20;;;;;;;17.72;85.33;100877.97;5030355;28;20092;-66
2023/09/19 10:37:29;;;;;;;19.55;10.20;;;;;;;17.89;85.31;100894.47;5030142;28;20053;-66
2023/09/19 10:39:56;;;;;;;19.52;10.88;;;;;;;18.02;84.83;100891.66;5030243;28;20126;-66
2023/09/19 10:42:27;;;;;;;20.45;10.73;;;;;;;18.13;82.98;100891.97;5030291;28;20061;-66
2023/09/19 10:44:53;;;;;;;20.63;10.27;;;;;;;18.32;83.17;100891.31;5030303;28;20068;-66
2023/09/19 10:47:20;;;;;;;18.80;10.02;;;;;;;18.35;80.20;100884.97;5030336;28;20124;-65
2023/09/19 10:49:46;;;;;;;22.35;11.18;;;;;;;18.34;80.62;100883.34;5028843;28;20025;-65
2023/09/19 10:52:18;;;;;;;19.75;9.80;;;;;;;18.40;79.94;100888.31;5021577;28;20057;-66
2023/09/19 10:54:51;;;;;;;20.42;10.23;;;;;;;18.40;80.94;100884.72;5020969;28;20026;-65
2023/09/19 10:57:23;;;;;;;19.63;9.60;;;;;;;18.43;78.85;100878.38;5023120;28;20045;-66
2023/09/19 11:00:39;;;;;;;22.03;10.60;;;;;;;18.46;78.94;100883.28;5016856;28;20030;-66
2023/09/19 11:03:14;;;;;;;19.75;9.70;;;;;;;18.66;80.64;100869.38;5020271;28;20049;-66
2023/09/19 11:05:41;;;;;;;19.27;9.55;;;;;;;18.68;78.26;100867.03;5014455;28;20108;-66
2023/09/19 11:08:12;;;;;;;18.23;9.50;;;;;;;18.67;77.25;100880.22;5010706;28;20029;-65
2023/09/19 11:10:51;;;;;;;16.75;10.00;;;;;;;18.66;76.64;100861.75;5024467;28;20025;-65
2023/09/19 11:13:37;;;;;;;19.38;9.60;;;;;;;18.71;77.62;100855.06;5030610;28;20040;-65
2023/09/19 11:16:04;;;;;;;21.00;9.93;;;;;;;18.66;77.42;100833.75;5032461;28;20116;-66
2023/09/19 11:18:42;;;;;;;16.88;9.32;;;;;;;18.78;79.20;100844.06;5033812;28;20041;-65